sensor_id;sensor_type;location;lat;lon;timestamp;P1;durP1;ratioP1;P2;durP2;ratioP2
76284;SDS011;65096;50.998;7.098;2022-12-24T00:01:01;14.57;;;2.95;;
76284;SDS011;65096;50.998;7.098;2022-12-24T00:03:28;15.15;;;2.25;;
76284;SDS011;65096;50.998;7.098;2022-12-24T00:05:54;19.05;;;2.95;;
76284;SDS011;65096;50.998;7.098;2022-12-24T00:08:21;14.77;;;2.53;;
76284;SDS011;65096;50.998;7.098;2022-12-24T00:10:49;14.30;;;2.72;;
76284;SDS011;65096;50.998;7.098;2022-12-24T00:13:16;12.02;;;2.33;;
76284;SDS011;65096;50.998;7.098;2022-12-24T00:15:44;16.52;;;2.47;;
76284;SDS011;65096;50.998;7.098;2022-12-24T00:18:11;18.70;;;3.10;;
76284;SDS011;65096;50.998;7.098;2022-12-24T00:20:38;18.13;;;2.50;;
76284;SDS011;65096;50.998;7.098;2022-12-24T00:23:05;9.98;;;2.17;;
76284;SDS011;65096;50.998;7.098;2022-12-24T00:25:33;15.23;;;2.63;;
76284;SDS011;65096;50.998;7.098;2022-12-24T00:27:59;20.92;;;2.90;;
76284;SDS011;65096;50.998;7.098;2022-12-24T00:30:26;19.42;;;3.67;;
76284;SDS011;65096;50.998;7.098;2022-12-24T00:32:54;9.57;;;3.10;;
76284;SDS011;65096;50.998;7.098;2022-12-24T00:35:21;12.88;;;1.98;;
76284;SDS011;65096;50.998;7.098;2022-12-24T00:37:48;17.05;;;2.83;;
76284;SDS011;65096;50.998;7.098;2022-12-24T00:40:15;14.98;;;2.58;;
76284;SDS011;65096;50.998;7.098;2022-12-24T00:42:43;14.10;;;2.80;;
76284;SDS011;65096;50.998;7.098;2022-12-24T00:45:14;16.10;;;3.25;;
76284;SDS011;65096;50.998;7.098;2022-12-24T00:47:41;16.35;;;2.50;;
76284;SDS011;65096;50.998;7.098;2022-12-24T00:50:09;17.33;;;3.35;;
76284;SDS011;65096;50.998;7.098;2022-12-24T00:52:36;16.98;;;2.88;;
76284;SDS011;65096;50.998;7.098;2022-12-24T00:55:03;19.42;;;3.15;;
76284;SDS011;65096;50.998;7.098;2022-12-24T00:57:30;20.25;;;3.22;;
76284;SDS011;65096;50.998;7.098;2022-12-24T00:59:57;17.98;;;3.17;;
76284;SDS011;65096;50.998;7.098;2022-12-24T01:02:23;13.30;;;2.60;;
76284;SDS011;65096;50.998;7.098;2022-12-24T01:04:50;18.70;;;2.53;;
76284;SDS011;65096;50.998;7.098;2022-12-24T01:07:36;15.85;;;2.53;;
76284;SDS011;65096;50.998;7.098;2022-12-24T01:10:04;16.42;;;3.33;;
76284;SDS011;65096;50.998;7.098;2022-12-24T01:12:31;18.08;;;2.70;;
76284;SDS011;65096;50.998;7.098;2022-12-24T01:14:58;15.90;;;2.60;;
76284;SDS011;65096;50.998;7.098;2022-12-24T01:17:25;19.15;;;3.65;;
76284;SDS011;65096;50.998;7.098;2022-12-24T01:19:52;16.00;;;2.97;;
76284;SDS011;65096;50.998;7.098;2022-12-24T01:22:18;17.70;;;3.20;;
76284;SDS011;65096;50.998;7.098;2022-12-24T01:24:46;16.92;;;4.95;;
76284;SDS011;65096;50.998;7.098;2022-12-24T01:27:13;13.23;;;2.92;;
76284;SDS011;65096;50.998;7.098;2022-12-24T01:29:40;16.02;;;2.95;;
76284;SDS011;65096;50.998;7.098;2022-12-24T01:32:07;19.17;;;3.15;;
76284;SDS011;65096;50.998;7.098;2022-12-24T01:34:33;15.18;;;2.58;;
76284;SDS011;65096;50.998;7.098;2022-12-24T01:37:00;13.88;;;2.42;;
76284;SDS011;65096;50.998;7.098;2022-12-24T01:39:27;15.75;;;3.05;;
76284;SDS011;65096;50.998;7.098;2022-12-24T01:41:55;16.38;;;3.15;;
76284;SDS011;65096;50.998;7.098;2022-12-24T01:44:39;11.80;;;2.30;;
76284;SDS011;65096;50.998;7.098;2022-12-24T01:47:08;17.95;;;2.58;;
76284;SDS011;65096;50.998;7.098;2022-12-24T01:49:40;18.02;;;2.63;;
76284;SDS011;65096;50.998;7.098;2022-12-24T01:52:10;15.85;;;2.28;;
76284;SDS011;65096;50.998;7.098;2022-12-24T01:54:40;11.18;;;2.05;;
76284;SDS011;65096;50.998;7.098;2022-12-24T01:59:41;16.05;;;2.33;;
76284;SDS011;65096;50.998;7.098;2022-12-24T02:02:11;17.42;;;3.22;;
76284;SDS011;65096;50.998;7.098;2022-12-24T02:04:39;13.38;;;3.05;;
76284;SDS011;65096;50.998;7.098;2022-12-24T02:07:12;17.60;;;2.65;;
76284;SDS011;65096;50.998;7.098;2022-12-24T02:09:39;28.52;;;3.83;;
76284;SDS011;65096;50.998;7.098;2022-12-24T02:12:06;12.85;;;2.22;;
76284;SDS011;65096;50.998;7.098;2022-12-24T02:14:35;13.35;;;2.40;;
76284;SDS011;65096;50.998;7.098;2022-12-24T02:17:05;11.45;;;2.22;;
76284;SDS011;65096;50.998;7.098;2022-12-24T02:22:57;18.85;;;3.05;;
76284;SDS011;65096;50.998;7.098;2022-12-24T02:25:40;17.40;;;3.25;;
76284;SDS011;65096;50.998;7.098;2022-12-24T02:28:22;18.02;;;2.60;;
76284;SDS011;65096;50.998;7.098;2022-12-24T02:31:03;14.88;;;2.55;;
76284;SDS011;65096;50.998;7.098;2022-12-24T02:33:36;15.75;;;2.28;;
76284;SDS011;65096;50.998;7.098;2022-12-24T02:36:10;16.38;;;2.70;;
76284;SDS011;65096;50.998;7.098;2022-12-24T02:38:43;12.88;;;2.20;;
76284;SDS011;65096;50.998;7.098;2022-12-24T02:41:15;13.32;;;2.55;;
76284;SDS011;65096;50.998;7.098;2022-12-24T02:43:46;13.23;;;2.78;;
76284;SDS011;65096;50.998;7.098;2022-12-24T02:46:17;16.13;;;2.55;;
76284;SDS011;65096;50.998;7.098;2022-12-24T02:48:47;19.80;;;3.35;;
76284;SDS011;65096;50.998;7.098;2022-12-24T02:51:14;15.48;;;2.50;;
76284;SDS011;65096;50.998;7.098;2022-12-24T02:53:41;13.45;;;2.75;;
76284;SDS011;65096;50.998;7.098;2022-12-24T02:56:17;12.57;;;2.88;;
76284;SDS011;65096;50.998;7.098;2022-12-24T02:58:58;10.55;;;2.28;;
76284;SDS011;65096;50.998;7.098;2022-12-24T03:01:40;12.88;;;2.22;;
76284;SDS011;65096;50.998;7.098;2022-12-24T03:07:05;14.88;;;3.03;;
76284;SDS011;65096;50.998;7.098;2022-12-24T03:09:42;15.85;;;2.60;;
76284;SDS011;65096;50.998;7.098;2022-12-24T03:12:25;13.52;;;2.83;;
76284;SDS011;65096;50.998;7.098;2022-12-24T03:14:57;19.02;;;3.42;;
76284;SDS011;65096;50.998;7.098;2022-12-24T03:17:26;17.63;;;2.75;;
76284;SDS011;65096;50.998;7.098;2022-12-24T03:19:54;17.75;;;2.75;;
76284;SDS011;65096;50.998;7.098;2022-12-24T03:22:21;19.75;;;3.45;;
76284;SDS011;65096;50.998;7.098;2022-12-24T03:24:49;19.35;;;2.67;;
76284;SDS011;65096;50.998;7.098;2022-12-24T03:27:16;16.92;;;2.30;;
76284;SDS011;65096;50.998;7.098;2022-12-24T03:29:43;18.33;;;3.55;;
76284;SDS011;65096;50.998;7.098;2022-12-24T03:32:11;14.60;;;2.83;;
76284;SDS011;65096;50.998;7.098;2022-12-24T03:34:39;14.80;;;2.85;;
76284;SDS011;65096;50.998;7.098;2022-12-24T03:37:06;14.43;;;3.30;;
76284;SDS011;65096;50.998;7.098;2022-12-24T03:39:32;18.00;;;2.78;;
76284;SDS011;65096;50.998;7.098;2022-12-24T03:41:59;16.98;;;2.35;;
76284;SDS011;65096;50.998;7.098;2022-12-24T03:44:26;14.85;;;3.33;;
76284;SDS011;65096;50.998;7.098;2022-12-24T03:46:52;10.13;;;1.33;;
76284;SDS011;65096;50.998;7.098;2022-12-24T03:49:19;15.98;;;2.33;;
76284;SDS011;65096;50.998;7.098;2022-12-24T03:51:47;12.18;;;2.20;;
76284;SDS011;65096;50.998;7.098;2022-12-24T03:54:14;9.82;;;1.95;;
76284;SDS011;65096;50.998;7.098;2022-12-24T03:56:40;11.73;;;1.88;;
76284;SDS011;65096;50.998;7.098;2022-12-24T03:59:07;9.20;;;1.95;;
76284;SDS011;65096;50.998;7.098;2022-12-24T04:01:34;10.50;;;1.98;;
76284;SDS011;65096;50.998;7.098;2022-12-24T04:04:00;11.98;;;2.75;;
76284;SDS011;65096;50.998;7.098;2022-12-24T04:06:27;9.07;;;1.90;;
76284;SDS011;65096;50.998;7.098;2022-12-24T04:08:55;7.70;;;2.05;;
76284;SDS011;65096;50.998;7.098;2022-12-24T04:11:23;10.57;;;1.73;;
76284;SDS011;65096;50.998;7.098;2022-12-24T04:13:50;8.93;;;1.65;;
76284;SDS011;65096;50.998;7.098;2022-12-24T04:16:17;9.20;;;2.47;;
76284;SDS011;65096;50.998;7.098;2022-12-24T04:18:44;10.45;;;1.70;;
76284;SDS011;65096;50.998;7.098;2022-12-24T04:21:10;10.10;;;1.83;;
76284;SDS011;65096;50.998;7.098;2022-12-24T04:23:38;7.63;;;2.13;;
76284;SDS011;65096;50.998;7.098;2022-12-24T04:26:08;8.38;;;2.25;;
76284;SDS011;65096;50.998;7.098;2022-12-24T04:28:37;10.88;;;2.08;;
76284;SDS011;65096;50.998;7.098;2022-12-24T04:31:05;9.43;;;1.70;;
76284;SDS011;65096;50.998;7.098;2022-12-24T04:33:33;7.57;;;2.22;;
76284;SDS011;65096;50.998;7.098;2022-12-24T04:36:00;5.70;;;1.42;;
76284;SDS011;65096;50.998;7.098;2022-12-24T04:38:29;5.47;;;1.35;;
76284;SDS011;65096;50.998;7.098;2022-12-24T04:40:57;6.53;;;1.60;;
76284;SDS011;65096;50.998;7.098;2022-12-24T04:43:26;7.45;;;1.60;;
76284;SDS011;65096;50.998;7.098;2022-12-24T04:45:53;7.47;;;1.30;;
76284;SDS011;65096;50.998;7.098;2022-12-24T04:48:20;8.18;;;2.00;;
76284;SDS011;65096;50.998;7.098;2022-12-24T04:50:46;8.35;;;2.10;;
76284;SDS011;65096;50.998;7.098;2022-12-24T04:53:13;7.03;;;1.75;;
76284;SDS011;65096;50.998;7.098;2022-12-24T04:55:42;5.80;;;1.20;;
76284;SDS011;65096;50.998;7.098;2022-12-24T04:58:09;6.82;;;1.60;;
76284;SDS011;65096;50.998;7.098;2022-12-24T05:00:38;7.18;;;2.03;;
76284;SDS011;65096;50.998;7.098;2022-12-24T05:03:05;8.77;;;1.63;;
76284;SDS011;65096;50.998;7.098;2022-12-24T05:05:32;8.88;;;1.58;;
76284;SDS011;65096;50.998;7.098;2022-12-24T05:07:58;8.23;;;1.67;;
76284;SDS011;65096;50.998;7.098;2022-12-24T05:10:25;9.02;;;1.45;;
76284;SDS011;65096;50.998;7.098;2022-12-24T05:12:52;11.00;;;2.25;;
76284;SDS011;65096;50.998;7.098;2022-12-24T05:15:18;10.65;;;1.80;;
76284;SDS011;65096;50.998;7.098;2022-12-24T05:17:46;7.60;;;1.85;;
76284;SDS011;65096;50.998;7.098;2022-12-24T05:20:13;10.23;;;2.08;;
76284;SDS011;65096;50.998;7.098;2022-12-24T05:22:40;6.22;;;1.40;;
76284;SDS011;65096;50.998;7.098;2022-12-24T05:25:24;9.93;;;1.80;;
76284;SDS011;65096;50.998;7.098;2022-12-24T05:28:09;6.88;;;1.75;;
76284;SDS011;65096;50.998;7.098;2022-12-24T05:30:36;8.20;;;1.70;;
76284;SDS011;65096;50.998;7.098;2022-12-24T05:33:04;8.77;;;1.60;;
76284;SDS011;65096;50.998;7.098;2022-12-24T05:35:31;8.30;;;1.90;;
76284;SDS011;65096;50.998;7.098;2022-12-24T05:37:57;10.48;;;2.10;;
76284;SDS011;65096;50.998;7.098;2022-12-24T05:40:24;7.95;;;2.08;;
76284;SDS011;65096;50.998;7.098;2022-12-24T05:42:52;9.98;;;1.90;;
76284;SDS011;65096;50.998;7.098;2022-12-24T05:45:20;11.05;;;2.00;;
76284;SDS011;65096;50.998;7.098;2022-12-24T05:47:47;11.30;;;2.00;;
76284;SDS011;65096;50.998;7.098;2022-12-24T05:50:15;11.70;;;2.10;;
76284;SDS011;65096;50.998;7.098;2022-12-24T05:52:42;12.75;;;2.00;;
76284;SDS011;65096;50.998;7.098;2022-12-24T05:55:08;7.88;;;2.10;;
76284;SDS011;65096;50.998;7.098;2022-12-24T05:57:35;9.38;;;1.83;;
76284;SDS011;65096;50.998;7.098;2022-12-24T06:00:02;5.47;;;1.40;;
76284;SDS011;65096;50.998;7.098;2022-12-24T06:02:30;8.70;;;1.60;;
76284;SDS011;65096;50.998;7.098;2022-12-24T06:04:56;11.23;;;1.98;;
76284;SDS011;65096;50.998;7.098;2022-12-24T06:07:24;11.20;;;2.47;;
76284;SDS011;65096;50.998;7.098;2022-12-24T06:09:51;11.55;;;2.08;;
76284;SDS011;65096;50.998;7.098;2022-12-24T06:12:18;8.05;;;1.92;;
76284;SDS011;65096;50.998;7.098;2022-12-24T06:14:45;11.88;;;2.47;;
76284;SDS011;65096;50.998;7.098;2022-12-24T06:17:11;10.98;;;2.40;;
76284;SDS011;65096;50.998;7.098;2022-12-24T06:19:38;12.77;;;2.10;;
76284;SDS011;65096;50.998;7.098;2022-12-24T06:22:05;11.70;;;1.88;;
76284;SDS011;65096;50.998;7.098;2022-12-24T06:24:33;9.85;;;2.10;;
76284;SDS011;65096;50.998;7.098;2022-12-24T06:27:00;11.88;;;2.95;;
76284;SDS011;65096;50.998;7.098;2022-12-24T06:29:26;13.25;;;3.30;;
76284;SDS011;65096;50.998;7.098;2022-12-24T06:31:53;9.82;;;2.50;;
76284;SDS011;65096;50.998;7.098;2022-12-24T06:34:19;11.18;;;2.80;;
76284;SDS011;65096;50.998;7.098;2022-12-24T06:36:46;10.45;;;2.95;;
76284;SDS011;65096;50.998;7.098;2022-12-24T06:39:13;8.30;;;2.33;;
76284;SDS011;65096;50.998;7.098;2022-12-24T06:41:41;13.77;;;2.90;;
76284;SDS011;65096;50.998;7.098;2022-12-24T06:44:08;11.50;;;2.22;;
76284;SDS011;65096;50.998;7.098;2022-12-24T06:46:34;11.55;;;2.53;;
76284;SDS011;65096;50.998;7.098;2022-12-24T06:49:01;11.60;;;2.55;;
76284;SDS011;65096;50.998;7.098;2022-12-24T06:51:28;12.30;;;2.75;;
76284;SDS011;65096;50.998;7.098;2022-12-24T06:53:54;11.00;;;2.67;;
76284;SDS011;65096;50.998;7.098;2022-12-24T06:56:21;12.48;;;2.70;;
76284;SDS011;65096;50.998;7.098;2022-12-24T06:58:49;10.27;;;2.70;;
76284;SDS011;65096;50.998;7.098;2022-12-24T07:01:16;11.02;;;2.42;;
76284;SDS011;65096;50.998;7.098;2022-12-24T07:03:44;19.27;;;3.10;;
76284;SDS011;65096;50.998;7.098;2022-12-24T07:06:14;14.73;;;2.90;;
76284;SDS011;65096;50.998;7.098;2022-12-24T07:11:11;9.63;;;2.25;;
76284;SDS011;65096;50.998;7.098;2022-12-24T07:13:37;13.10;;;3.13;;
76284;SDS011;65096;50.998;7.098;2022-12-24T07:16:06;13.50;;;3.00;;
76284;SDS011;65096;50.998;7.098;2022-12-24T07:18:33;10.63;;;2.72;;
76284;SDS011;65096;50.998;7.098;2022-12-24T07:21:01;20.70;;;3.60;;
76284;SDS011;65096;50.998;7.098;2022-12-24T07:23:29;16.77;;;2.88;;
76284;SDS011;65096;50.998;7.098;2022-12-24T07:25:58;13.13;;;3.33;;
76284;SDS011;65096;50.998;7.098;2022-12-24T07:28:25;13.10;;;2.65;;
76284;SDS011;65096;50.998;7.098;2022-12-24T07:30:52;10.48;;;2.65;;
76284;SDS011;65096;50.998;7.098;2022-12-24T07:33:20;18.30;;;3.50;;
76284;SDS011;65096;50.998;7.098;2022-12-24T07:35:47;17.23;;;3.55;;
76284;SDS011;65096;50.998;7.098;2022-12-24T07:38:14;14.82;;;3.00;;
76284;SDS011;65096;50.998;7.098;2022-12-24T07:40:40;12.70;;;3.45;;
76284;SDS011;65096;50.998;7.098;2022-12-24T07:43:07;15.50;;;3.60;;
76284;SDS011;65096;50.998;7.098;2022-12-24T07:45:34;17.98;;;3.08;;
76284;SDS011;65096;50.998;7.098;2022-12-24T07:48:00;18.75;;;3.40;;
76284;SDS011;65096;50.998;7.098;2022-12-24T07:50:28;13.25;;;3.05;;
76284;SDS011;65096;50.998;7.098;2022-12-24T07:52:55;15.75;;;3.38;;
76284;SDS011;65096;50.998;7.098;2022-12-24T07:55:22;12.88;;;3.00;;
76284;SDS011;65096;50.998;7.098;2022-12-24T07:57:48;15.93;;;3.47;;
76284;SDS011;65096;50.998;7.098;2022-12-24T08:00:15;12.45;;;3.63;;
76284;SDS011;65096;50.998;7.098;2022-12-24T08:02:42;12.88;;;3.00;;
76284;SDS011;65096;50.998;7.098;2022-12-24T08:05:09;15.88;;;3.17;;
76284;SDS011;65096;50.998;7.098;2022-12-24T08:07:37;19.02;;;3.47;;
76284;SDS011;65096;50.998;7.098;2022-12-24T08:10:04;16.75;;;3.83;;
76284;SDS011;65096;50.998;7.098;2022-12-24T08:12:32;18.75;;;3.95;;
76284;SDS011;65096;50.998;7.098;2022-12-24T08:14:58;17.27;;;3.92;;
76284;SDS011;65096;50.998;7.098;2022-12-24T08:17:25;19.63;;;3.35;;
76284;SDS011;65096;50.998;7.098;2022-12-24T08:19:52;19.05;;;4.57;;
76284;SDS011;65096;50.998;7.098;2022-12-24T08:22:18;20.25;;;3.83;;
76284;SDS011;65096;50.998;7.098;2022-12-24T08:24:46;16.60;;;3.95;;
76284;SDS011;65096;50.998;7.098;2022-12-24T08:27:13;18.17;;;3.75;;
76284;SDS011;65096;50.998;7.098;2022-12-24T08:29:40;17.15;;;3.70;;
76284;SDS011;65096;50.998;7.098;2022-12-24T08:32:06;18.60;;;3.38;;
76284;SDS011;65096;50.998;7.098;2022-12-24T08:34:33;13.73;;;3.25;;
76284;SDS011;65096;50.998;7.098;2022-12-24T08:37:00;14.23;;;3.60;;
76284;SDS011;65096;50.998;7.098;2022-12-24T08:39:26;14.15;;;2.95;;
76284;SDS011;65096;50.998;7.098;2022-12-24T08:41:54;19.63;;;3.88;;
76284;SDS011;65096;50.998;7.098;2022-12-24T08:44:21;16.17;;;3.92;;
76284;SDS011;65096;50.998;7.098;2022-12-24T08:46:48;18.00;;;3.97;;
76284;SDS011;65096;50.998;7.098;2022-12-24T08:49:14;19.55;;;3.75;;
76284;SDS011;65096;50.998;7.098;2022-12-24T08:51:41;20.25;;;3.70;;
76284;SDS011;65096;50.998;7.098;2022-12-24T08:54:08;18.63;;;3.22;;
76284;SDS011;65096;50.998;7.098;2022-12-24T08:56:34;18.02;;;4.00;;
76284;SDS011;65096;50.998;7.098;2022-12-24T08:59:02;19.10;;;3.92;;
76284;SDS011;65096;50.998;7.098;2022-12-24T09:01:29;13.25;;;3.15;;
76284;SDS011;65096;50.998;7.098;2022-12-24T09:03:56;13.65;;;2.75;;
76284;SDS011;65096;50.998;7.098;2022-12-24T09:06:23;16.02;;;3.38;;
76284;SDS011;65096;50.998;7.098;2022-12-24T09:08:50;17.85;;;3.38;;
76284;SDS011;65096;50.998;7.098;2022-12-24T09:11:16;16.80;;;3.47;;
76284;SDS011;65096;50.998;7.098;2022-12-24T09:13:44;18.38;;;4.05;;
76284;SDS011;65096;50.998;7.098;2022-12-24T09:16:13;17.38;;;3.47;;
76284;SDS011;65096;50.998;7.098;2022-12-24T09:18:42;20.30;;;3.38;;
76284;SDS011;65096;50.998;7.098;2022-12-24T09:21:10;20.50;;;3.75;;
76284;SDS011;65096;50.998;7.098;2022-12-24T09:23:40;18.55;;;3.33;;
76284;SDS011;65096;50.998;7.098;2022-12-24T09:26:08;20.00;;;3.15;;
76284;SDS011;65096;50.998;7.098;2022-12-24T09:28:37;19.92;;;4.20;;
76284;SDS011;65096;50.998;7.098;2022-12-24T09:31:04;16.42;;;3.60;;
76284;SDS011;65096;50.998;7.098;2022-12-24T09:33:33;19.55;;;3.97;;
76284;SDS011;65096;50.998;7.098;2022-12-24T09:36:02;13.95;;;3.10;;
76284;SDS011;65096;50.998;7.098;2022-12-24T09:38:29;14.20;;;3.60;;
76284;SDS011;65096;50.998;7.098;2022-12-24T09:40:57;16.45;;;3.10;;
76284;SDS011;65096;50.998;7.098;2022-12-24T09:43:25;17.98;;;3.60;;
76284;SDS011;65096;50.998;7.098;2022-12-24T09:46:00;15.00;;;3.35;;
76284;SDS011;65096;50.998;7.098;2022-12-24T09:48:37;18.60;;;3.33;;
76284;SDS011;65096;50.998;7.098;2022-12-24T09:51:07;20.27;;;3.22;;
76284;SDS011;65096;50.998;7.098;2022-12-24T09:53:36;25.38;;;4.07;;
76284;SDS011;65096;50.998;7.098;2022-12-24T09:56:10;15.30;;;3.22;;
76284;SDS011;65096;50.998;7.098;2022-12-24T09:58:40;20.40;;;3.75;;
76284;SDS011;65096;50.998;7.098;2022-12-24T10:01:11;18.58;;;4.28;;
76284;SDS011;65096;50.998;7.098;2022-12-24T10:03:40;14.10;;;3.08;;
76284;SDS011;65096;50.998;7.098;2022-12-24T10:06:09;26.13;;;4.70;;
76284;SDS011;65096;50.998;7.098;2022-12-24T10:08:42;20.52;;;3.50;;
76284;SDS011;65096;50.998;7.098;2022-12-24T10:11:21;18.00;;;3.70;;
76284;SDS011;65096;50.998;7.098;2022-12-24T10:13:56;17.25;;;3.45;;
76284;SDS011;65096;50.998;7.098;2022-12-24T10:16:39;17.73;;;3.63;;
76284;SDS011;65096;50.998;7.098;2022-12-24T10:19:17;20.60;;;3.60;;
76284;SDS011;65096;50.998;7.098;2022-12-24T10:21:52;22.92;;;3.67;;
76284;SDS011;65096;50.998;7.098;2022-12-24T10:24:31;18.83;;;4.28;;
76284;SDS011;65096;50.998;7.098;2022-12-24T10:27:04;21.80;;;4.00;;
76284;SDS011;65096;50.998;7.098;2022-12-24T10:29:35;16.10;;;3.60;;
76284;SDS011;65096;50.998;7.098;2022-12-24T10:32:09;24.88;;;4.22;;
76284;SDS011;65096;50.998;7.098;2022-12-24T10:34:45;22.95;;;3.80;;
76284;SDS011;65096;50.998;7.098;2022-12-24T10:37:19;20.27;;;3.50;;
76284;SDS011;65096;50.998;7.098;2022-12-24T10:39:48;16.85;;;3.47;;
76284;SDS011;65096;50.998;7.098;2022-12-24T10:42:15;18.33;;;4.32;;
76284;SDS011;65096;50.998;7.098;2022-12-24T10:44:44;20.83;;;3.67;;
76284;SDS011;65096;50.998;7.098;2022-12-24T10:47:15;19.48;;;3.63;;
76284;SDS011;65096;50.998;7.098;2022-12-24T10:49:44;17.45;;;4.72;;
76284;SDS011;65096;50.998;7.098;2022-12-24T10:52:16;16.38;;;4.28;;
76284;SDS011;65096;50.998;7.098;2022-12-24T10:55:08;16.73;;;3.30;;
76284;SDS011;65096;50.998;7.098;2022-12-24T10:57:37;19.45;;;3.72;;
76284;SDS011;65096;50.998;7.098;2022-12-24T11:00:06;21.45;;;3.97;;
76284;SDS011;65096;50.998;7.098;2022-12-24T11:02:43;22.38;;;4.40;;
76284;SDS011;65096;50.998;7.098;2022-12-24T11:05:27;22.90;;;3.95;;
76284;SDS011;65096;50.998;7.098;2022-12-24T11:07:58;20.27;;;3.50;;
76284;SDS011;65096;50.998;7.098;2022-12-24T11:10:25;19.60;;;4.55;;
76284;SDS011;65096;50.998;7.098;2022-12-24T11:12:53;20.92;;;3.22;;
76284;SDS011;65096;50.998;7.098;2022-12-24T11:15:21;20.45;;;3.90;;
76284;SDS011;65096;50.998;7.098;2022-12-24T11:17:54;20.63;;;3.85;;
76284;SDS011;65096;50.998;7.098;2022-12-24T11:20:26;21.50;;;4.13;;
76284;SDS011;65096;50.998;7.098;2022-12-24T11:22:54;20.85;;;3.65;;
76284;SDS011;65096;50.998;7.098;2022-12-24T11:25:22;19.30;;;3.67;;
76284;SDS011;65096;50.998;7.098;2022-12-24T11:27:53;20.92;;;3.65;;
76284;SDS011;65096;50.998;7.098;2022-12-24T11:30:22;17.75;;;3.70;;
76284;SDS011;65096;50.998;7.098;2022-12-24T11:35:47;17.67;;;3.78;;
76284;SDS011;65096;50.998;7.098;2022-12-24T11:38:17;16.33;;;3.58;;
76284;SDS011;65096;50.998;7.098;2022-12-24T11:40:47;18.60;;;4.30;;
76284;SDS011;65096;50.998;7.098;2022-12-24T11:43:15;19.45;;;4.40;;
76284;SDS011;65096;50.998;7.098;2022-12-24T11:45:47;16.27;;;3.05;;
76284;SDS011;65096;50.998;7.098;2022-12-24T11:48:23;18.25;;;3.47;;
76284;SDS011;65096;50.998;7.098;2022-12-24T11:50:55;12.77;;;3.58;;
76284;SDS011;65096;50.998;7.098;2022-12-24T11:53:24;22.00;;;3.25;;
76284;SDS011;65096;50.998;7.098;2022-12-24T11:55:56;19.77;;;4.32;;
76284;SDS011;65096;50.998;7.098;2022-12-24T11:58:26;15.27;;;2.97;;
76284;SDS011;65096;50.998;7.098;2022-12-24T12:00:57;22.30;;;3.05;;
76284;SDS011;65096;50.998;7.098;2022-12-24T12:03:31;24.15;;;5.43;;
76284;SDS011;65096;50.998;7.098;2022-12-24T12:06:03;16.17;;;2.90;;
76284;SDS011;65096;50.998;7.098;2022-12-24T12:08:42;13.48;;;2.55;;
76284;SDS011;65096;50.998;7.098;2022-12-24T12:11:10;12.88;;;3.55;;
76284;SDS011;65096;50.998;7.098;2022-12-24T12:13:39;16.73;;;3.58;;
76284;SDS011;65096;50.998;7.098;2022-12-24T12:16:12;20.17;;;3.75;;
76284;SDS011;65096;50.998;7.098;2022-12-24T12:18:45;19.20;;;3.67;;
76284;SDS011;65096;50.998;7.098;2022-12-24T12:21:19;14.68;;;3.05;;
76284;SDS011;65096;50.998;7.098;2022-12-24T12:23:50;23.83;;;3.55;;
76284;SDS011;65096;50.998;7.098;2022-12-24T12:26:21;18.70;;;2.92;;
76284;SDS011;65096;50.998;7.098;2022-12-24T12:28:51;21.90;;;3.30;;
76284;SDS011;65096;50.998;7.098;2022-12-24T12:31:24;16.73;;;4.13;;
76284;SDS011;65096;50.998;7.098;2022-12-24T12:33:54;19.58;;;3.22;;
76284;SDS011;65096;50.998;7.098;2022-12-24T12:36:28;16.88;;;2.83;;
76284;SDS011;65096;50.998;7.098;2022-12-24T12:38:58;20.08;;;3.70;;
76284;SDS011;65096;50.998;7.098;2022-12-24T12:41:31;17.42;;;3.40;;
76284;SDS011;65096;50.998;7.098;2022-12-24T12:47:28;16.33;;;3.60;;
76284;SDS011;65096;50.998;7.098;2022-12-24T12:50:06;19.13;;;3.35;;
76284;SDS011;65096;50.998;7.098;2022-12-24T12:52:46;21.95;;;4.07;;
76284;SDS011;65096;50.998;7.098;2022-12-24T12:55:22;14.93;;;3.03;;
76284;SDS011;65096;50.998;7.098;2022-12-24T12:57:59;17.73;;;3.60;;
76284;SDS011;65096;50.998;7.098;2022-12-24T13:00:30;16.33;;;3.20;;
76284;SDS011;65096;50.998;7.098;2022-12-24T13:03:12;13.80;;;3.13;;
76284;SDS011;65096;50.998;7.098;2022-12-24T13:06:12;16.40;;;3.47;;
76284;SDS011;65096;50.998;7.098;2022-12-24T13:09:08;14.85;;;2.88;;
76284;SDS011;65096;50.998;7.098;2022-12-24T13:12:01;20.60;;;3.25;;
76284;SDS011;65096;50.998;7.098;2022-12-24T13:14:42;17.02;;;3.25;;
76284;SDS011;65096;50.998;7.098;2022-12-24T13:17:26;19.50;;;3.17;;
76284;SDS011;65096;50.998;7.098;2022-12-24T13:20:14;15.82;;;3.10;;
76284;SDS011;65096;50.998;7.098;2022-12-24T13:22:49;17.35;;;3.97;;
76284;SDS011;65096;50.998;7.098;2022-12-24T13:25:25;14.77;;;3.72;;
76284;SDS011;65096;50.998;7.098;2022-12-24T13:27:55;16.38;;;2.50;;
76284;SDS011;65096;50.998;7.098;2022-12-24T13:30:33;14.13;;;3.65;;
76284;SDS011;65096;50.998;7.098;2022-12-24T13:33:02;18.63;;;3.95;;
76284;SDS011;65096;50.998;7.098;2022-12-24T13:38:38;17.70;;;2.92;;
76284;SDS011;65096;50.998;7.098;2022-12-24T13:44:18;16.20;;;3.42;;
76284;SDS011;65096;50.998;7.098;2022-12-24T13:46:50;18.88;;;3.10;;
76284;SDS011;65096;50.998;7.098;2022-12-24T13:49:24;14.70;;;3.30;;
76284;SDS011;65096;50.998;7.098;2022-12-24T13:52:04;18.80;;;3.20;;
76284;SDS011;65096;50.998;7.098;2022-12-24T13:54:44;16.13;;;3.10;;
76284;SDS011;65096;50.998;7.098;2022-12-24T13:57:30;17.20;;;2.95;;
76284;SDS011;65096;50.998;7.098;2022-12-24T14:00:02;15.73;;;2.70;;
76284;SDS011;65096;50.998;7.098;2022-12-24T14:02:33;15.43;;;2.53;;
76284;SDS011;65096;50.998;7.098;2022-12-24T14:05:05;21.23;;;3.67;;
76284;SDS011;65096;50.998;7.098;2022-12-24T14:07:43;15.15;;;2.83;;
76284;SDS011;65096;50.998;7.098;2022-12-24T14:10:18;14.48;;;3.33;;
76284;SDS011;65096;50.998;7.098;2022-12-24T14:12:51;20.65;;;3.38;;
76284;SDS011;65096;50.998;7.098;2022-12-24T14:18:15;16.02;;;3.13;;
76284;SDS011;65096;50.998;7.098;2022-12-24T14:20:46;17.48;;;3.50;;
76284;SDS011;65096;50.998;7.098;2022-12-24T14:23:14;16.58;;;3.65;;
76284;SDS011;65096;50.998;7.098;2022-12-24T14:25:52;14.57;;;3.30;;
76284;SDS011;65096;50.998;7.098;2022-12-24T14:28:22;14.10;;;3.13;;
76284;SDS011;65096;50.998;7.098;2022-12-24T14:30:58;16.75;;;3.00;;
76284;SDS011;65096;50.998;7.098;2022-12-24T14:33:28;12.70;;;2.55;;
76284;SDS011;65096;50.998;7.098;2022-12-24T14:35:56;15.73;;;3.53;;
76284;SDS011;65096;50.998;7.098;2022-12-24T14:38:24;15.52;;;3.22;;
76284;SDS011;65096;50.998;7.098;2022-12-24T14:40:52;14.65;;;3.65;;
76284;SDS011;65096;50.998;7.098;2022-12-24T14:43:28;16.23;;;3.25;;
76284;SDS011;65096;50.998;7.098;2022-12-24T14:46:10;19.77;;;4.10;;
76284;SDS011;65096;50.998;7.098;2022-12-24T14:48:49;19.40;;;3.80;;
76284;SDS011;65096;50.998;7.098;2022-12-24T14:51:20;16.20;;;3.50;;
76284;SDS011;65096;50.998;7.098;2022-12-24T14:54:01;15.40;;;3.63;;
76284;SDS011;65096;50.998;7.098;2022-12-24T14:56:41;17.58;;;3.65;;
76284;SDS011;65096;50.998;7.098;2022-12-24T14:59:15;18.65;;;4.47;;
76284;SDS011;65096;50.998;7.098;2022-12-24T15:01:43;18.80;;;4.38;;
76284;SDS011;65096;50.998;7.098;2022-12-24T15:04:14;14.98;;;3.78;;
76284;SDS011;65096;50.998;7.098;2022-12-24T15:06:42;17.52;;;4.47;;
76284;SDS011;65096;50.998;7.098;2022-12-24T15:09:13;14.93;;;4.43;;
76284;SDS011;65096;50.998;7.098;2022-12-24T15:11:44;16.02;;;3.40;;
76284;SDS011;65096;50.998;7.098;2022-12-24T15:14:12;19.50;;;3.50;;
76284;SDS011;65096;50.998;7.098;2022-12-24T15:16:41;14.55;;;2.90;;
76284;SDS011;65096;50.998;7.098;2022-12-24T15:19:18;16.35;;;2.97;;